createdAt,value
2022-10-16T00:04:06.733Z,102013.59
2022-10-16T00:09:33.462Z,102009.06
2022-10-16T00:14:57.730Z,102006.25
2022-10-16T00:20:23.647Z,102013.13
2022-10-16T00:25:58.084Z,102019.34
2022-10-16T00:31:23.531Z,102035.66
2022-10-16T00:36:49.461Z,102031.53
2022-10-16T00:42:20.220Z,102029.38
2022-10-16T00:47:50.111Z,102031.47
2022-10-16T00:53:17.161Z,102038.56
2022-10-16T00:58:42.353Z,102044.94
2022-10-16T01:04:06.333Z,102044.25
2022-10-16T01:09:39.613Z,102043.94
2022-10-16T01:15:12.358Z,102041.25
2022-10-16T01:20:43.898Z,102042.25
2022-10-16T01:26:29.952Z,102043.09
2022-10-16T01:32:01.326Z,102034.31
2022-10-16T01:37:35.152Z,102038.31
2022-10-16T01:43:05.249Z,102044.28
2022-10-16T01:48:31.740Z,102054.75
2022-10-16T01:54:01.238Z,102058.44
2022-10-16T01:59:32.133Z,102056.50
2022-10-16T02:05:04.350Z,102052.97
2022-10-16T02:10:32.446Z,102058.78
2022-10-16T02:15:57.024Z,102067.13
2022-10-16T02:21:27.653Z,102056.78
2022-10-16T02:26:59.248Z,102074.94
2022-10-16T02:32:29.454Z,102067.88
2022-10-16T02:37:56.968Z,102074.13
2022-10-16T02:43:21.805Z,102082.03
2022-10-16T02:48:47.540Z,102089.53
2022-10-16T02:54:12.816Z,102093.94
2022-10-16T02:59:36.731Z,102104.69
2022-10-16T03:05:02.302Z,102107.22
2022-10-16T03:10:28.446Z,102102.84
2022-10-16T03:15:54.291Z,102101.44
2022-10-16T03:21:18.977Z,102099.03
2022-10-16T03:26:44.918Z,102094.38
2022-10-16T03:32:10.348Z,102095.50
2022-10-16T03:37:34.777Z,102090.50
2022-10-16T03:43:01.682Z,102086.00
2022-10-16T03:48:29.130Z,102088.13
2022-10-16T03:53:54.134Z,102083.13
2022-10-16T03:59:20.198Z,102083.72
2022-10-16T04:04:44.747Z,102087.09
2022-10-16T04:10:11.596Z,102089.94
2022-10-16T04:15:37.122Z,102101.53
2022-10-16T04:21:04.984Z,102102.97
2022-10-16T04:26:29.588Z,102105.09
2022-10-16T04:31:55.119Z,102105.81
2022-10-16T04:37:18.948Z,102111.22
2022-10-16T04:42:43.145Z,102111.78
2022-10-16T04:48:08.696Z,102111.75
2022-10-16T04:53:33.273Z,102112.34
2022-10-16T04:58:57.477Z,102121.03
2022-10-16T05:04:27.425Z,102117.72
2022-10-16T05:09:51.517Z,102125.94
2022-10-16T05:15:16.211Z,102127.41
2022-10-16T05:20:41.566Z,102134.44
2022-10-16T05:26:05.610Z,102143.28
2022-10-16T05:31:30.850Z,102135.34
2022-10-16T05:36:56.226Z,102144.63
2022-10-16T05:42:21.997Z,102141.97
2022-10-16T05:47:46.537Z,102141.59
2022-10-16T05:53:12.090Z,102148.66
2022-10-16T05:58:38.116Z,102153.22
2022-10-16T06:04:01.982Z,102158.38
2022-10-16T06:09:28.610Z,102168.97
2022-10-16T06:14:53.594Z,102164.97
2022-10-16T06:20:17.733Z,102178.97
2022-10-16T06:25:46.485Z,102191.41
2022-10-16T06:31:12.390Z,102182.59
2022-10-16T06:36:37.502Z,102184.59
2022-10-16T06:42:03.302Z,102186.75
2022-10-16T06:47:34.472Z,102175.72
2022-10-16T06:52:59.009Z,102183.00
2022-10-16T06:58:25.831Z,102179.31
2022-10-16T07:03:54.876Z,102182.38
2022-10-16T07:09:19.251Z,102187.06
2022-10-16T07:14:45.327Z,102180.56
2022-10-16T07:20:12.170Z,102186.19
2022-10-16T07:25:37.039Z,102188.94
2022-10-16T07:31:06.967Z,102189.91
2022-10-16T07:36:33.875Z,102184.38
2022-10-16T07:41:59.494Z,102183.25
2022-10-16T07:47:25.720Z,102187.66
2022-10-16T07:52:54.115Z,102195.41
2022-10-16T07:58:18.842Z,102189.66
2022-10-16T08:03:46.219Z,102183.84
2022-10-16T08:09:11.349Z,102179.53
2022-10-16T08:14:35.783Z,102177.16
2022-10-16T08:20:02.755Z,102173.91
2022-10-16T08:25:28.215Z,102176.75
2022-10-16T08:30:53.855Z,102166.56
2022-10-16T08:36:20.051Z,102170.56
2022-10-16T08:42:11.594Z,102165.16
2022-10-16T08:47:46.838Z,102168.59
2022-10-16T08:53:18.617Z,102157.16
2022-10-16T08:58:43.060Z,102153.75
2022-10-16T09:04:52.870Z,102150.41
2022-10-16T09:10:32.250Z,102146.91
2022-10-16T09:16:09.944Z,102149.03
2022-10-16T09:21:38.259Z,102145.03
2022-10-16T09:27:04.429Z,102140.28
2022-10-16T09:32:30.701Z,102137.09
2022-10-16T09:37:57.223Z,102139.75
2022-10-16T09:43:31.860Z,102133.41
2022-10-16T09:48:59.677Z,102133.25
2022-10-16T09:54:24.758Z,102139.63
2022-10-16T09:59:52.660Z,102127.59
2022-10-16T10:05:23.121Z,102116.88
2022-10-16T10:10:51.071Z,102103.94
2022-10-16T10:16:25.917Z,102097.63
2022-10-16T10:21:52.786Z,102104.31
2022-10-16T10:27:20.734Z,102096.03
2022-10-16T10:32:55.924Z,102087.47
2022-10-16T10:38:32.984Z,102088.75
2022-10-16T10:44:09.988Z,102087.88
2022-10-16T10:49:50.981Z,102092.78
2022-10-16T10:55:24.908Z,102087.69
2022-10-16T11:00:58.957Z,102089.44
2022-10-16T11:06:28.476Z,102075.81
2022-10-16T11:11:58.749Z,102072.34
2022-10-16T11:17:27.587Z,102072.94
2022-10-16T11:23:00.246Z,102076.78
2022-10-16T11:28:31.775Z,102064.56
2022-10-16T11:34:04.165Z,102071.38
2022-10-16T11:39:32.039Z,102078.91
2022-10-16T11:45:02.977Z,102076.59
2022-10-16T11:50:33.884Z,102063.47
2022-10-16T11:56:00.664Z,102070.69
2022-10-16T12:01:33.890Z,102071.59
2022-10-16T12:07:07.783Z,102069.22
2022-10-16T12:12:41.476Z,102074.94
2022-10-16T12:18:05.838Z,102077.38
2022-10-16T12:23:30.184Z,102069.47
2022-10-16T12:28:56.834Z,102065.25
2022-10-16T12:34:25.808Z,102071.16
2022-10-16T12:39:51.381Z,102064.09
2022-10-16T12:45:26.966Z,102068.38
2022-10-16T12:50:50.983Z,102056.59
2022-10-16T12:56:26.555Z,102061.66
2022-10-16T13:02:17.062Z,102074.75
2022-10-16T13:07:54.916Z,102069.16
2022-10-16T13:13:34.878Z,102079.66
2022-10-16T13:19:17.608Z,102072.63
2022-10-16T13:24:56.104Z,102084.03
2022-10-16T13:30:28.155Z,102090.63
2022-10-16T13:36:00.382Z,102097.66
2022-10-16T13:41:24.484Z,102093.09
2022-10-16T13:46:48.902Z,102096.53
2022-10-16T13:52:20.877Z,102098.25
2022-10-16T13:57:45.698Z,102104.06
2022-10-16T14:03:17.346Z,102113.13
2022-10-16T14:08:47.046Z,102113.22
2022-10-16T14:14:13.663Z,102118.72
2022-10-16T14:19:38.813Z,102117.84
2022-10-16T14:25:18.882Z,102121.69
2022-10-16T14:30:53.140Z,102118.03
2022-10-16T14:36:20.425Z,102132.41
2022-10-16T14:41:49.912Z,102145.69
2022-10-16T14:47:23.264Z,102143.38
2022-10-16T14:52:48.142Z,102145.88
2022-10-16T14:58:18.585Z,102162.06
2022-10-16T15:03:43.198Z,102180.31
2022-10-16T15:09:08.638Z,102183.59
2022-10-16T15:14:34.473Z,102198.91
2022-10-16T15:20:00.195Z,102208.28
2022-10-16T15:25:33.827Z,102217.84
2022-10-16T15:31:01.230Z,102225.75
2022-10-16T15:36:28.923Z,102243.31
2022-10-16T15:41:54.419Z,102250.78
2022-10-16T15:47:20.600Z,102265.84
2022-10-16T15:52:45.167Z,102269.94
2022-10-16T15:58:10.660Z,102274.84
2022-10-16T16:03:36.884Z,102276.63
2022-10-16T16:14:28.313Z,102276.69
2022-10-16T16:19:54.398Z,102271.59
2022-10-16T16:25:18.726Z,102271.41
2022-10-16T16:30:43.249Z,102268.16
2022-10-16T16:36:15.344Z,102271.06
2022-10-16T16:41:40.200Z,102267.28
2022-10-16T16:47:05.654Z,102287.75
2022-10-16T16:52:32.809Z,102286.22
2022-10-16T16:57:58.674Z,102284.78
2022-10-16T17:03:24.120Z,102283.66
2022-10-16T17:08:50.650Z,102288.31
2022-10-16T17:14:16.271Z,102284.41
2022-10-16T17:19:42.373Z,102284.41
2022-10-16T17:25:09.399Z,102281.69
2022-10-16T17:30:35.582Z,102276.19
2022-10-16T17:36:03.491Z,102274.88
2022-10-16T17:41:29.784Z,102283.06
2022-10-16T17:46:55.284Z,102292.25
2022-10-16T17:52:20.144Z,102309.34
2022-10-16T17:57:46.281Z,102310.19
2022-10-16T18:03:11.689Z,102313.56
2022-10-16T18:08:36.727Z,102321.69
2022-10-16T18:14:03.875Z,102336.25
2022-10-16T18:19:28.447Z,102339.34
2022-10-16T18:24:52.653Z,102345.84
2022-10-16T18:30:18.327Z,102344.16
2022-10-16T18:35:44.005Z,102340.78
2022-10-16T18:41:08.582Z,102341.09
2022-10-16T18:46:34.602Z,102339.13
2022-10-16T18:52:00.609Z,102346.91
2022-10-16T18:57:30.161Z,102355.34
2022-10-16T19:02:56.498Z,102362.84
2022-10-16T19:08:20.317Z,102372.16
2022-10-16T19:13:47.869Z,102371.28
2022-10-16T19:19:18.245Z,102369.94
2022-10-16T19:24:45.046Z,102375.88
2022-10-16T19:35:41.687Z,102377.38
2022-10-16T19:41:07.761Z,102378.03
2022-10-16T19:46:33.733Z,102390.19
2022-10-16T19:51:59.663Z,102403.25
2022-10-16T19:57:27.344Z,102398.66
2022-10-16T20:02:51.875Z,102393.75
2022-10-16T20:08:17.985Z,102396.41
2022-10-16T20:13:42.622Z,102398.25
2022-10-16T20:19:08.142Z,102406.00
2022-10-16T20:24:34.709Z,102420.56
2022-10-16T20:29:59.570Z,102418.84
2022-10-16T20:35:24.890Z,102425.97
2022-10-16T20:40:51.075Z,102436.97
2022-10-16T20:46:21.846Z,102436.28
2022-10-16T20:51:49.838Z,102434.41
2022-10-16T20:57:16.985Z,102427.91
2022-10-16T21:02:41.515Z,102427.19
2022-10-16T21:08:05.782Z,102423.41
2022-10-16T21:13:31.526Z,102428.47
2022-10-16T21:18:56.201Z,102407.78
2022-10-16T21:24:20.827Z,102389.41
2022-10-16T21:29:49.526Z,102383.22
2022-10-16T21:35:13.535Z,102380.41
2022-10-16T21:40:37.785Z,102381.94
2022-10-16T21:46:03.850Z,102389.75
2022-10-16T21:51:29.302Z,102388.06
2022-10-16T21:56:53.873Z,102393.53
2022-10-16T22:02:19.440Z,102404.81
2022-10-16T22:07:43.148Z,102404.81
2022-10-16T22:13:08.486Z,102404.97
2022-10-16T22:18:35.709Z,102416.69
2022-10-16T22:24:00.830Z,102427.78
2022-10-16T22:29:26.130Z,102431.84
2022-10-16T22:34:52.004Z,102424.69
2022-10-16T22:40:16.897Z,102425.28
2022-10-16T22:45:41.261Z,102432.38
2022-10-16T22:51:08.389Z,102430.69
2022-10-16T22:56:33.145Z,102444.66
2022-10-16T23:01:59.225Z,102448.28
2022-10-16T23:07:25.139Z,102452.75
2022-10-16T23:12:49.575Z,102459.66
2022-10-16T23:18:14.796Z,102463.81
2022-10-16T23:23:43.101Z,102463.63
2022-10-16T23:29:07.965Z,102460.22
2022-10-16T23:34:32.625Z,102473.56
2022-10-16T23:39:58.405Z,102470.72
2022-10-16T23:45:22.891Z,102476.38
2022-10-16T23:50:47.921Z,102478.94
2022-10-16T23:56:15.061Z,102493.88
